sensor_id;sensor_type;location;lat;lon;timestamp;pressure;altitude;pressure_sealevel;temperature;humidity
48352;BME280;34163;49.314;6.752;2022-09-12T06:26:14;99606.56;;;4.38;100.00
48352;BME280;34163;49.314;6.752;2022-09-12T06:28:41;99606.50;;;4.41;100.00
48352;BME280;34163;49.314;6.752;2022-09-12T06:31:12;99611.59;;;4.49;100.00
48352;BME280;34163;49.314;6.752;2022-09-12T06:33:39;99611.59;;;4.49;100.00
48352;BME280;34163;49.314;6.752;2022-09-12T06:36:05;99619.44;;;4.50;100.00
48352;BME280;34163;49.314;6.752;2022-09-12T06:38:31;99614.19;;;4.50;100.00
48352;BME280;34163;49.314;6.752;2022-09-12T06:40:57;99611.56;;;4.50;100.00
48352;BME280;34163;49.314;6.752;2022-09-12T06:43:23;99614.94;;;4.55;100.00
48352;BME280;34163;49.314;6.752;2022-09-12T06:45:49;99623.63;;;4.58;100.00
48352;BME280;34163;49.314;6.752;2022-09-12T06:48:15;99617.50;;;4.59;100.00
48352;BME280;34163;49.314;6.752;2022-09-12T06:50:40;99617.59;;;4.54;100.00
48352;BME280;34163;49.314;6.752;2022-09-12T06:53:05;99619.25;;;4.60;100.00
48352;BME280;34163;49.314;6.752;2022-09-12T07:54:42;99601.03;;;4.91;100.00
48352;BME280;34163;49.314;6.752;2022-09-12T07:57:08;99592.31;;;4.90;100.00
48352;BME280;34163;49.314;6.752;2022-09-12T07:59:33;99593.09;;;4.94;100.00
48352;BME280;34163;49.314;6.752;2022-09-12T08:01:58;99583.47;;;4.95;100.00
48352;BME280;34163;49.314;6.752;2022-09-12T08:04:24;99576.31;;;5.01;100.00
48352;BME280;34163;49.314;6.752;2022-09-12T08:06:53;99585.94;;;5.01;100.00
48352;BME280;34163;49.314;6.752;2022-09-12T08:09:19;99592.94;;;5.02;100.00
48352;BME280;34163;49.314;6.752;2022-09-12T08:11:44;99586.75;;;5.04;100.00
48352;BME280;34163;49.314;6.752;2022-09-12T08:14:09;99579.66;;;5.08;100.00
48352;BME280;34163;49.314;6.752;2022-09-12T08:16:34;99580.53;;;5.07;100.00
48352;BME280;34163;49.314;6.752;2022-09-12T08:19:00;99584.03;;;5.09;100.00
48352;BME280;34163;49.314;6.752;2022-09-12T08:21:27;99575.16;;;5.13;100.00
48352;BME280;34163;49.314;6.752;2022-09-12T08:23:53;99576.91;;;5.13;100.00
48352;BME280;34163;49.314;6.752;2022-09-12T08:26:19;99591.00;;;5.08;100.00
48352;BME280;34163;49.314;6.752;2022-09-12T08:28:44;99591.91;;;5.09;100.00
48352;BME280;34163;49.314;6.752;2022-09-12T08:31:11;99591.00;;;5.08;100.00
48352;BME280;34163;49.314;6.752;2022-09-12T08:33:37;99591.72;;;5.15;100.00
48352;BME280;34163;49.314;6.752;2022-09-12T08:36:03;99592.53;;;5.19;100.00
48352;BME280;34163;49.314;6.752;2022-09-12T08:38:29;99595.19;;;5.17;100.00
48352;BME280;34163;49.314;6.752;2022-09-12T08:40:59;99590.94;;;5.12;100.00
48352;BME280;34163;49.314;6.752;2022-09-12T08:46:10;99593.47;;;5.16;100.00
48352;BME280;34163;49.314;6.752;2022-09-12T08:48:37;99587.25;;;5.20;100.00
48352;BME280;34163;49.314;6.752;2022-09-12T08:51:03;99584.63;;;5.20;100.00
48352;BME280;34163;49.314;6.752;2022-09-12T08:53:29;99581.91;;;5.23;100.00
48352;BME280;34163;49.314;6.752;2022-09-12T08:55:56;99576.66;;;5.23;100.00
48352;BME280;34163;49.314;6.752;2022-09-12T08:58:23;99573.97;;;5.26;100.00
48352;BME280;34163;49.314;6.752;2022-09-12T09:00:52;99575.69;;;5.27;100.00
48352;BME280;34163;49.314;6.752;2022-09-12T09:11:13;99574.75;;;5.30;100.00
48352;BME280;34163;49.314;6.752;2022-09-12T09:14:00;99579.03;;;5.33;100.00
48352;BME280;34163;49.314;6.752;2022-09-12T09:16:49;99572.16;;;5.28;100.00
48352;BME280;34163;49.314;6.752;2022-09-12T09:19:30;99573.78;;;5.33;100.00
48352;BME280;34163;49.314;6.752;2022-09-12T09:22:02;99566.91;;;5.28;100.00
48352;BME280;34163;49.314;6.752;2022-09-12T09:27:04;99569.38;;;5.35;100.00
48352;BME280;34163;49.314;6.752;2022-09-12T09:29:38;99565.91;;;5.33;100.00
48352;BME280;34163;49.314;6.752;2022-09-12T09:32:10;99565.75;;;5.39;100.00
48352;BME280;34163;49.314;6.752;2022-09-12T09:34:37;99564.84;;;5.41;100.00
48352;BME280;34163;49.314;6.752;2022-09-12T09:44:42;99562.25;;;5.40;100.00
48352;BME280;34163;49.314;6.752;2022-09-12T09:47:10;99551.63;;;5.44;100.00
48352;BME280;34163;49.314;6.752;2022-09-12T09:49:36;99551.78;;;5.38;100.00
48352;BME280;34163;49.314;6.752;2022-09-12T09:52:02;99546.34;;;5.44;100.00
48352;BME280;34163;49.314;6.752;2022-09-12T09:55:12;99549.72;;;5.50;100.00
48352;BME280;34163;49.314;6.752;2022-09-12T10:03:17;99541.75;;;5.53;100.00
48352;BME280;34163;49.314;6.752;2022-09-12T10:05:49;99537.25;;;5.58;100.00
48352;BME280;34163;49.314;6.752;2022-09-12T10:10:57;99525.53;;;6.34;100.00
48352;BME280;34163;49.314;6.752;2022-09-12T10:13:24;99528.25;;;5.99;100.00
48352;BME280;34163;49.314;6.752;2022-09-12T10:15:59;99517.88;;;5.93;100.00
48352;BME280;34163;49.314;6.752;2022-09-12T10:18:35;99516.97;;;5.94;100.00
48352;BME280;34163;49.314;6.752;2022-09-12T10:21:01;99513.50;;;5.94;100.00
48352;BME280;34163;49.314;6.752;2022-09-12T10:23:34;99509.53;;;6.10;100.00
48352;BME280;34163;49.314;6.752;2022-09-12T10:26:02;99506.50;;;5.93;100.00
48352;BME280;34163;49.314;6.752;2022-09-12T10:28:31;99504.63;;;5.98;100.00
48352;BME280;34163;49.314;6.752;2022-09-12T10:30:57;99500.38;;;5.92;100.00
48352;BME280;34163;49.314;6.752;2022-09-12T10:33:23;99501.16;;;5.96;100.00
48352;BME280;34163;49.314;6.752;2022-09-12T10:35:50;99504.63;;;5.98;100.00
48352;BME280;34163;49.314;6.752;2022-09-12T10:38:20;99500.31;;;5.95;100.00
48352;BME280;34163;49.314;6.752;2022-09-12T10:40:53;99506.31;;;6.00;100.00
48352;BME280;34163;49.314;6.752;2022-09-12T10:43:29;99503.78;;;5.96;100.00
48352;BME280;34163;49.314;6.752;2022-09-12T10:46:19;99498.44;;;6.00;100.00
48352;BME280;34163;49.314;6.752;2022-09-12T10:48:50;99501.88;;;6.03;100.00
48352;BME280;34163;49.314;6.752;2022-09-12T10:53:48;99494.78;;;6.05;100.00
48352;BME280;34163;49.314;6.752;2022-09-12T11:01:27;99486.00;;;6.06;100.00
48352;BME280;34163;49.314;6.752;2022-09-12T11:12:02;99473.75;;;6.05;100.00
48352;BME280;34163;49.314;6.752;2022-09-12T11:22:36;99479.16;;;6.00;100.00
48352;BME280;34163;49.314;6.752;2022-09-12T11:25:12;99475.44;;;6.07;100.00
48352;BME280;34163;49.314;6.752;2022-09-12T11:30:10;99469.38;;;6.05;100.00
48352;BME280;34163;49.314;6.752;2022-09-12T11:32:39;99465.69;;;6.11;100.00
48352;BME280;34163;49.314;6.752;2022-09-12T11:43:00;99457.97;;;6.05;100.00
48352;BME280;34163;49.314;6.752;2022-09-12T11:45:39;99459.59;;;6.09;100.00
48352;BME280;34163;49.314;6.752;2022-09-12T11:48:10;99458.53;;;6.16;100.00
48352;BME280;34163;49.314;6.752;2022-09-12T11:50:38;99447.09;;;6.17;100.00
48352;BME280;34163;49.314;6.752;2022-09-12T11:53:04;99447.25;;;6.11;100.00
48352;BME280;34163;49.314;6.752;2022-09-12T11:58:21;99447.00;;;6.20;100.00
48352;BME280;34163;49.314;6.752;2022-09-12T12:00:52;99441.91;;;6.14;100.00
48352;BME280;34163;49.314;6.752;2022-09-12T12:08:21;99411.97;;;6.18;100.00
48352;BME280;34163;49.314;6.752;2022-09-12T12:10:49;99412.13;;;6.13;100.00
48352;BME280;34163;49.314;6.752;2022-09-12T12:13:16;99418.91;;;6.21;100.00
48352;BME280;34163;49.314;6.752;2022-09-12T12:15:47;99415.41;;;6.20;100.00
48352;BME280;34163;49.314;6.752;2022-09-12T12:18:24;99424.34;;;6.16;100.00
48352;BME280;34163;49.314;6.752;2022-09-12T12:20:50;99426.97;;;6.16;100.00
48352;BME280;34163;49.314;6.752;2022-09-12T12:23:30;99427.78;;;6.18;100.00
48352;BME280;34163;49.314;6.752;2022-09-12T12:25:57;99436.47;;;6.20;100.00
48352;BME280;34163;49.314;6.752;2022-09-12T12:31:06;99430.22;;;6.24;100.00
48352;BME280;34163;49.314;6.752;2022-09-12T12:38:27;99425.75;;;6.26;100.00
48352;BME280;34163;49.314;6.752;2022-09-12T12:40:53;99419.81;;;6.20;100.00
48352;BME280;34163;49.314;6.752;2022-09-12T12:43:38;99426.66;;;6.25;100.00
48352;BME280;34163;49.314;6.752;2022-09-12T12:46:05;99418.75;;;6.25;100.00
48352;BME280;34163;49.314;6.752;2022-09-12T12:48:32;99418.75;;;6.53;100.00
48352;BME280;34163;49.314;6.752;2022-09-12T12:54:01;99410.78;;;6.28;100.00
48352;BME280;34163;49.314;6.752;2022-09-12T12:56:34;99400.44;;;6.22;100.00
48352;BME280;34163;49.314;6.752;2022-09-12T12:59:24;99409.25;;;6.21;100.00
48352;BME280;34163;49.314;6.752;2022-09-12T13:01:49;99400.56;;;6.19;100.00
48352;BME280;34163;49.314;6.752;2022-09-12T13:04:17;99395.31;;;6.19;100.00
48352;BME280;34163;49.314;6.752;2022-09-12T13:06:43;99398.03;;;6.16;100.00
48352;BME280;34163;49.314;6.752;2022-09-12T13:11:38;99389.09;;;6.20;100.00
48352;BME280;34163;49.314;6.752;2022-09-12T13:14:06;99389.19;;;6.17;100.00
48352;BME280;34163;49.314;6.752;2022-09-12T13:16:50;99383.22;;;6.12;100.00
48352;BME280;34163;49.314;6.752;2022-09-12T13:19:38;99379.59;;;6.16;100.00
48352;BME280;34163;49.314;6.752;2022-09-12T13:22:06;99371.66;;;6.17;100.00
48352;BME280;34163;49.314;6.752;2022-09-12T13:24:33;99367.22;;;6.20;100.00
48352;BME280;34163;49.314;6.752;2022-09-12T13:26:58;99369.78;;;6.21;100.00
48352;BME280;34163;49.314;6.752;2022-09-12T13:29:24;99366.50;;;6.14;100.00
48352;BME280;34163;49.314;6.752;2022-09-12T13:32:00;99363.00;;;6.14;100.00
48352;BME280;34163;49.314;6.752;2022-09-12T13:34:28;99360.31;;;6.15;100.00
48352;BME280;34163;49.314;6.752;2022-09-12T13:39:44;99354.94;;;6.18;100.00
48352;BME280;34163;49.314;6.752;2022-09-12T13:44:47;99347.88;;;6.21;100.00
48352;BME280;34163;49.314;6.752;2022-09-12T13:47:15;99342.78;;;6.16;100.00
48352;BME280;34163;49.314;6.752;2022-09-12T13:49:42;99341.75;;;6.20;100.00
48352;BME280;34163;49.314;6.752;2022-09-12T13:52:16;99347.13;;;6.17;100.00
48352;BME280;34163;49.314;6.752;2022-09-12T13:54:43;99338.31;;;6.18;100.00
48352;BME280;34163;49.314;6.752;2022-09-12T13:57:25;99345.31;;;6.19;100.00
48352;BME280;34163;49.314;6.752;2022-09-12T13:59:53;99336.63;;;6.15;100.00
48352;BME280;34163;49.314;6.752;2022-09-12T14:02:19;99336.59;;;6.17;100.00
48352;BME280;34163;49.314;6.752;2022-09-12T14:04:47;99331.38;;;6.15;100.00
48352;BME280;34163;49.314;6.752;2022-09-12T14:07:31;99333.25;;;6.12;100.00
48352;BME280;34163;49.314;6.752;2022-09-12T14:09:58;99332.44;;;6.10;100.00
48352;BME280;34163;49.314;6.752;2022-09-12T14:12:26;99333.34;;;6.09;100.00
48352;BME280;34163;49.314;6.752;2022-09-12T14:14:53;99324.28;;;6.19;100.00
48352;BME280;34163;49.314;6.752;2022-09-12T14:17:35;99325.31;;;6.13;100.00
48352;BME280;34163;49.314;6.752;2022-09-12T14:20:02;99321.09;;;6.08;100.00
48352;BME280;34163;49.314;6.752;2022-09-12T14:22:27;99319.28;;;6.10;100.00
48352;BME280;34163;49.314;6.752;2022-09-12T14:24:54;99318.31;;;6.12;100.00
48352;BME280;34163;49.314;6.752;2022-09-12T14:27:30;99317.47;;;6.12;100.00
48352;BME280;34163;49.314;6.752;2022-09-12T14:30:22;99322.03;;;6.07;100.00
48352;BME280;34163;49.314;6.752;2022-09-12T14:35:47;99305.22;;;6.11;100.00
48352;BME280;34163;49.314;6.752;2022-09-12T14:40:45;99299.00;;;6.13;100.00
48352;BME280;34163;49.314;6.752;2022-09-12T14:43:18;99296.31;;;6.15;100.00
48352;BME280;34163;49.314;6.752;2022-09-12T14:45:50;99301.50;;;6.18;100.00
48352;BME280;34163;49.314;6.752;2022-09-12T14:48:16;99302.38;;;6.17;100.00
48352;BME280;34163;49.314;6.752;2022-09-12T14:50:42;99297.78;;;6.24;100.00
48352;BME280;34163;49.314;6.752;2022-09-12T14:55:48;99293.75;;;6.13;100.00
48352;BME280;34163;49.314;6.752;2022-09-12T14:58:15;99288.59;;;6.10;100.00
48352;BME280;34163;49.314;6.752;2022-09-12T15:05:55;99294.75;;;6.09;100.00
48352;BME280;34163;49.314;6.752;2022-09-12T15:08:20;99284.16;;;6.11;100.00
48352;BME280;34163;49.314;6.752;2022-09-12T15:10:46;99284.16;;;6.11;100.00
48352;BME280;34163;49.314;6.752;2022-09-12T15:13:16;99284.06;;;6.14;100.00
48352;BME280;34163;49.314;6.752;2022-09-12T15:15:47;99282.38;;;6.13;100.00
48352;BME280;34163;49.314;6.752;2022-09-12T15:18:13;99275.56;;;6.06;100.00
48352;BME280;34163;49.314;6.752;2022-09-12T15:20:39;99279.00;;;6.08;100.00
48352;BME280;34163;49.314;6.752;2022-09-12T15:23:06;99277.97;;;6.13;100.00
48352;BME280;34163;49.314;6.752;2022-09-12T15:25:34;99278.75;;;6.15;100.00
48352;BME280;34163;49.314;6.752;2022-09-12T15:31:24;99281.59;;;6.09;100.00
48352;BME280;34163;49.314;6.752;2022-09-12T15:33:49;99276.31;;;6.09;100.00
48352;BME280;34163;49.314;6.752;2022-09-12T15:36:15;99277.91;;;6.15;100.00
48352;BME280;34163;49.314;6.752;2022-09-12T15:38:44;99277.97;;;6.13;100.00
48352;BME280;34163;49.314;6.752;2022-09-12T15:41:14;99278.72;;;6.17;100.00
48352;BME280;34163;49.314;6.752;2022-09-12T15:43:40;99281.44;;;6.14;100.00
48352;BME280;34163;49.314;6.752;2022-09-12T15:46:08;99276.03;;;6.18;100.00
48352;BME280;34163;49.314;6.752;2022-09-12T15:48:34;99279.69;;;6.14;100.00
48352;BME280;34163;49.314;6.752;2022-09-12T15:51:01;99279.59;;;6.17;100.00
48352;BME280;34163;49.314;6.752;2022-09-12T15:53:28;99277.06;;;6.14;100.00
48352;BME280;34163;49.314;6.752;2022-09-12T15:55:57;99279.78;;;6.11;100.00
48352;BME280;34163;49.314;6.752;2022-09-12T15:58:23;99280.34;;;6.21;100.00
48352;BME280;34163;49.314;6.752;2022-09-12T16:00:48;99280.53;;;6.15;100.00
48352;BME280;34163;49.314;6.752;2022-09-12T16:03:20;99280.63;;;6.12;100.00
48352;BME280;34163;49.314;6.752;2022-09-12T16:05:46;99274.19;;;6.21;100.00
48352;BME280;34163;49.314;6.752;2022-09-12T16:08:13;99275.94;;;6.22;100.00
48352;BME280;34163;49.314;6.752;2022-09-12T16:10:38;99270.81;;;6.17;100.00
48352;BME280;34163;49.314;6.752;2022-09-12T16:13:03;99269.03;;;6.19;100.00
48352;BME280;34163;49.314;6.752;2022-09-12T16:15:28;99269.03;;;6.19;100.00
48352;BME280;34163;49.314;6.752;2022-09-12T16:18:01;99262.94;;;6.17;100.00
48352;BME280;34163;49.314;6.752;2022-09-12T16:20:29;99264.66;;;6.18;100.00
48352;BME280;34163;49.314;6.752;2022-09-12T16:22:55;99261.13;;;6.19;100.00
48352;BME280;34163;49.314;6.752;2022-09-12T16:25:20;99248.78;;;6.21;100.00
48352;BME280;34163;49.314;6.752;2022-09-12T16:27:45;99254.13;;;6.18;100.00
48352;BME280;34163;49.314;6.752;2022-09-12T16:30:12;99253.16;;;6.21;100.00
48352;BME280;34163;49.314;6.752;2022-09-12T16:32:37;99227.88;;;15.71;100.00
48352;BME280;34163;49.314;6.752;2022-09-12T16:35:03;99244.56;;;9.47;100.00
48352;BME280;34163;49.314;6.752;2022-09-12T16:37:29;99244.19;;;7.71;100.00
48352;BME280;34163;49.314;6.752;2022-09-12T16:39:55;99254.09;;;7.19;100.00
48352;BME280;34163;49.314;6.752;2022-09-12T16:42:20;99247.97;;;6.95;100.00
48352;BME280;34163;49.314;6.752;2022-09-12T16:44:45;99250.94;;;6.85;100.00
48352;BME280;34163;49.314;6.752;2022-09-12T16:47:14;99257.50;;;6.73;100.00
48352;BME280;34163;49.314;6.752;2022-09-12T16:49:39;99250.72;;;6.66;100.00
48352;BME280;34163;49.314;6.752;2022-09-12T16:52:05;99253.34;;;6.66;100.00
48352;BME280;34163;49.314;6.752;2022-09-12T16:54:30;99244.75;;;6.61;100.00
48352;BME280;34163;49.314;6.752;2022-09-12T16:56:55;99244.03;;;6.58;100.00
48352;BME280;34163;49.314;6.752;2022-09-12T16:59:20;99238.88;;;6.54;100.00
48352;BME280;34163;49.314;6.752;2022-09-12T17:01:46;99235.44;;;6.51;100.00
48352;BME280;34163;49.314;6.752;2022-09-12T17:04:11;99239.88;;;6.50;100.00
48352;BME280;34163;49.314;6.752;2022-09-12T17:06:37;99234.66;;;6.49;100.00
48352;BME280;34163;49.314;6.752;2022-09-12T17:09:03;99234.91;;;6.41;100.00
48352;BME280;34163;49.314;6.752;2022-09-12T17:11:31;99235.81;;;6.42;100.00
48352;BME280;34163;49.314;6.752;2022-09-12T17:13:58;99232.22;;;6.43;100.00
48352;BME280;34163;49.314;6.752;2022-09-12T17:16:24;99232.38;;;6.38;100.00
48352;BME280;34163;49.314;6.752;2022-09-12T17:18:50;99239.44;;;6.38;100.00
48352;BME280;34163;49.314;6.752;2022-09-12T17:21:15;99240.06;;;6.44;100.00
48352;BME280;34163;49.314;6.752;2022-09-12T17:23:44;99235.81;;;6.42;100.00
48352;BME280;34163;49.314;6.752;2022-09-12T17:26:10;99234.88;;;6.43;100.00
48352;BME280;34163;49.314;6.752;2022-09-12T17:28:36;99228.81;;;6.41;100.00
48352;BME280;34163;49.314;6.752;2022-09-12T17:31:03;99229.72;;;6.40;100.00
48352;BME280;34163;49.314;6.752;2022-09-12T17:33:28;99236.53;;;6.45;100.00
48352;BME280;34163;49.314;6.752;2022-09-12T17:35:54;99243.09;;;6.33;100.00
48352;BME280;34163;49.314;6.752;2022-09-12T17:38:19;99233.22;;;6.40;100.00
48352;BME280;34163;49.314;6.752;2022-09-12T17:40:45;99234.06;;;6.41;100.00
48352;BME280;34163;49.314;6.752;2022-09-12T17:43:13;99243.81;;;6.39;100.00
48352;BME280;34163;49.314;6.752;2022-09-12T17:45:39;99237.50;;;6.43;100.00
48352;BME280;34163;49.314;6.752;2022-09-12T17:48:05;99238.31;;;6.45;100.00
48352;BME280;34163;49.314;6.752;2022-09-12T17:50:35;99225.16;;;6.45;100.00
48352;BME280;34163;49.314;6.752;2022-09-12T17:53:00;99230.44;;;6.45;100.00
48352;BME280;34163;49.314;6.752;2022-09-12T17:55:26;99234.06;;;6.41;100.00
48352;BME280;34163;49.314;6.752;2022-09-12T17:57:51;99246.44;;;6.39;100.00
48352;BME280;34163;49.314;6.752;2022-09-12T18:00:16;99247.28;;;6.39;100.00
48352;BME280;34163;49.314;6.752;2022-09-12T18:03:02;99242.75;;;6.43;100.00
48352;BME280;34163;49.314;6.752;2022-09-12T18:05:27;99249.88;;;6.41;100.00
48352;BME280;34163;49.314;6.752;2022-09-12T18:07:52;99248.97;;;6.42;100.00
48352;BME280;34163;49.314;6.752;2022-09-12T18:10:17;99249.97;;;6.38;100.00
48352;BME280;34163;49.314;6.752;2022-09-12T18:12:43;99245.59;;;6.36;100.00
48352;BME280;34163;49.314;6.752;2022-09-12T18:15:08;99253.41;;;6.40;100.00
48352;BME280;34163;49.314;6.752;2022-09-12T18:17:33;99248.22;;;6.36;100.00
48352;BME280;34163;49.314;6.752;2022-09-12T18:19:59;99248.22;;;6.36;100.00
48352;BME280;34163;49.314;6.752;2022-09-12T18:22:25;99250.06;;;6.34;100.00
48352;BME280;34163;49.314;6.752;2022-09-12T18:24:50;99249.97;;;6.38;100.00
48352;BME280;34163;49.314;6.752;2022-09-12T18:27:15;99244.69;;;6.38;100.00
48352;BME280;34163;49.314;6.752;2022-09-12T18:29:41;99248.03;;;6.43;100.00
48352;BME280;34163;49.314;6.752;2022-09-12T18:32:06;99255.13;;;6.41;100.00
48352;BME280;34163;49.314;6.752;2022-09-12T18:34:34;99248.03;;;6.43;100.00
48352;BME280;34163;49.314;6.752;2022-09-12T18:37:00;99252.34;;;6.45;100.00
48352;BME280;34163;49.314;6.752;2022-09-12T18:39:29;99244.50;;;6.44;100.00
48352;BME280;34163;49.314;6.752;2022-09-12T18:41:54;99241.81;;;6.45;100.00
48352;BME280;34163;49.314;6.752;2022-09-12T18:44:19;99254.81;;;6.50;100.00
48352;BME280;34163;49.314;6.752;2022-09-12T18:46:44;99256.66;;;6.48;100.00
48352;BME280;34163;49.314;6.752;2022-09-12T18:49:10;99270.81;;;6.44;100.00
48352;BME280;34163;49.314;6.752;2022-09-12T18:51:35;99272.53;;;6.45;100.00
48352;BME280;34163;49.314;6.752;2022-09-12T18:54:02;99267.22;;;6.46;100.00
48352;BME280;34163;49.314;6.752;2022-09-12T18:56:29;99271.47;;;6.50;100.00
48352;BME280;34163;49.314;6.752;2022-09-12T18:58:58;99265.34;;;6.50;100.00
48352;BME280;34163;49.314;6.752;2022-09-12T19:01:24;99262.06;;;6.43;100.00
48352;BME280;34163;49.314;6.752;2022-09-12T19:03:50;99263.72;;;6.46;100.00
48352;BME280;34163;49.314;6.752;2022-09-12T19:08:44;99262.16;;;6.40;100.00
48352;BME280;34163;49.314;6.752;2022-09-12T19:11:10;99260.50;;;6.38;100.00
48352;BME280;34163;49.314;6.752;2022-09-12T19:13:36;99248.97;;;6.42;100.00
48352;BME280;34163;49.314;6.752;2022-09-12T19:16:02;99249.91;;;6.39;100.00
48352;BME280;34163;49.314;6.752;2022-09-12T19:18:28;99249.16;;;6.35;100.00
48352;BME280;34163;49.314;6.752;2022-09-12T19:20:55;99251.69;;;6.39;100.00
48352;BME280;34163;49.314;6.752;2022-09-12T19:23:20;99247.22;;;6.41;100.00
48352;BME280;34163;49.314;6.752;2022-09-12T19:25:56;99246.31;;;6.42;100.00
48352;BME280;34163;49.314;6.752;2022-09-12T19:28:22;99247.44;;;6.34;100.00
48352;BME280;34163;49.314;6.752;2022-09-12T19:30:47;99245.53;;;6.38;100.00
48352;BME280;34163;49.314;6.752;2022-09-12T19:33:12;99245.50;;;6.40;100.00
48352;BME280;34163;49.314;6.752;2022-09-12T19:35:38;99237.00;;;6.31;100.00
48352;BME280;34163;49.314;6.752;2022-09-12T19:38:03;99225.47;;;6.35;100.00
48352;BME280;34163;49.314;6.752;2022-09-12T19:40:28;99223.66;;;6.38;100.00
48352;BME280;34163;49.314;6.752;2022-09-12T19:42:53;99216.38;;;6.44;100.00
48352;BME280;34163;49.314;6.752;2022-09-12T19:45:19;99212.00;;;6.45;100.00
48352;BME280;34163;49.314;6.752;2022-09-12T19:47:44;99201.78;;;6.35;100.00
48352;BME280;34163;49.314;6.752;2022-09-12T19:50:09;99208.66;;;6.40;100.00
48352;BME280;34163;49.314;6.752;2022-09-12T19:52:35;99192.97;;;6.36;100.00
48352;BME280;34163;49.314;6.752;2022-09-12T19:55:00;99189.34;;;6.41;100.00
48352;BME280;34163;49.314;6.752;2022-09-12T19:57:25;99190.22;;;6.40;100.00
48352;BME280;34163;49.314;6.752;2022-09-12T19:59:50;99190.19;;;6.41;100.00
48352;BME280;34163;49.314;6.752;2022-09-12T20:02:16;99196.38;;;6.40;100.00
48352;BME280;34163;49.314;6.752;2022-09-12T20:04:41;99201.75;;;6.37;100.00
48352;BME280;34163;49.314;6.752;2022-09-12T20:07:07;99201.75;;;6.37;100.00
48352;BME280;34163;49.314;6.752;2022-09-12T20:09:32;99208.72;;;6.38;100.00
48352;BME280;34163;49.314;6.752;2022-09-12T20:11:57;99211.28;;;6.40;100.00
48352;BME280;34163;49.314;6.752;2022-09-12T20:14:23;99217.63;;;6.34;100.00
48352;BME280;34163;49.314;6.752;2022-09-12T20:16:48;99229.28;;;6.27;100.00
48352;BME280;34163;49.314;6.752;2022-09-12T20:19:13;99231.69;;;6.33;100.00
48352;BME280;34163;49.314;6.752;2022-09-12T20:21:39;99225.53;;;6.34;100.00
48352;BME280;34163;49.314;6.752;2022-09-12T20:24:05;99221.97;;;6.35;100.00
48352;BME280;34163;49.314;6.752;2022-09-12T20:26:31;99215.81;;;6.36;100.00
48352;BME280;34163;49.314;6.752;2022-09-12T20:28:56;99216.44;;;6.43;100.00
48352;BME280;34163;49.314;6.752;2022-09-12T20:31:23;99210.50;;;6.38;100.00
48352;BME280;34163;49.314;6.752;2022-09-12T20:33:48;99220.97;;;6.39;100.00
48352;BME280;34163;49.314;6.752;2022-09-12T20:36:14;99225.47;;;6.35;100.00
48352;BME280;34163;49.314;6.752;2022-09-12T20:38:40;99235.91;;;6.39;100.00
48352;BME280;34163;49.314;6.752;2022-09-12T20:41:06;99240.47;;;6.33;100.00
48352;BME280;34163;49.314;6.752;2022-09-12T20:43:32;99241.16;;;6.39;100.00
48352;BME280;34163;49.314;6.752;2022-09-12T20:45:57;99245.00;;;6.28;100.00
48352;BME280;34163;49.314;6.752;2022-09-12T20:48:23;99249.97;;;6.38;100.00
48352;BME280;34163;49.314;6.752;2022-09-12T20:50:48;99238.63;;;6.35;100.00
48352;BME280;34163;49.314;6.752;2022-09-12T20:53:13;99240.47;;;6.33;100.00
48352;BME280;34163;49.314;6.752;2022-09-12T20:55:39;99243.09;;;6.33;100.00
48352;BME280;34163;49.314;6.752;2022-09-12T20:58:04;99246.44;;;6.39;100.00
48352;BME280;34163;49.314;6.752;2022-09-12T21:00:29;99246.47;;;6.37;100.00
48352;BME280;34163;49.314;6.752;2022-09-12T21:03:01;99244.75;;;6.36;100.00
48352;BME280;34163;49.314;6.752;2022-09-12T21:05:27;99239.59;;;6.33;100.00
48352;BME280;34163;49.314;6.752;2022-09-12T21:07:52;99240.47;;;6.33;100.00
48352;BME280;34163;49.314;6.752;2022-09-12T21:10:17;99242.88;;;6.40;100.00
48352;BME280;34163;49.314;6.752;2022-09-12T21:12:43;99238.69;;;6.34;100.00
48352;BME280;34163;49.314;6.752;2022-09-12T21:15:08;99243.91;;;6.35;100.00
48352;BME280;34163;49.314;6.752;2022-09-12T21:17:34;99237.59;;;6.40;100.00
48352;BME280;34163;49.314;6.752;2022-09-12T21:19:59;99232.34;;;6.40;100.00
48352;BME280;34163;49.314;6.752;2022-09-12T21:22:24;99240.28;;;6.38;100.00
48352;BME280;34163;49.314;6.752;2022-09-12T21:24:49;99233.97;;;6.44;100.00
48352;BME280;34163;49.314;6.752;2022-09-12T21:27:15;99232.22;;;6.43;100.00
48352;BME280;34163;49.314;6.752;2022-09-12T21:29:40;99234.97;;;6.40;100.00
48352;BME280;34163;49.314;6.752;2022-09-12T21:32:05;99233.28;;;6.39;100.00
48352;BME280;34163;49.314;6.752;2022-09-12T21:34:31;99237.50;;;6.43;100.00
48352;BME280;34163;49.314;6.752;2022-09-12T21:36:56;99230.53;;;6.42;100.00
48352;BME280;34163;49.314;6.752;2022-09-12T21:39:21;99217.28;;;6.45;100.00
48352;BME280;34163;49.314;6.752;2022-09-12T21:41:46;99210.22;;;6.45;100.00
48352;BME280;34163;49.314;6.752;2022-09-12T21:44:11;99205.88;;;6.44;100.00
48352;BME280;34163;49.314;6.752;2022-09-12T21:46:37;99206.63;;;6.48;100.00
48352;BME280;34163;49.314;6.752;2022-09-12T21:49:02;99207.53;;;6.47;100.00
48352;BME280;34163;49.314;6.752;2022-09-12T21:51:28;99210.06;;;6.50;100.00
48352;BME280;34163;49.314;6.752;2022-09-12T21:53:53;99217.28;;;6.45;100.00
48352;BME280;34163;49.314;6.752;2022-09-12T21:56:18;99226.19;;;6.41;100.00
48352;BME280;34163;49.314;6.752;2022-09-12T21:58:44;99221.81;;;6.40;100.00
48352;BME280;34163;49.314;6.752;2022-09-12T22:01:09;99219.84;;;6.46;100.00
48352;BME280;34163;49.314;6.752;2022-09-12T22:03:35;99222.53;;;6.45;100.00
48352;BME280;34163;49.314;6.752;2022-09-12T22:06:01;99225.28;;;6.42;100.00
48352;BME280;34163;49.314;6.752;2022-09-12T22:08:27;99212.91;;;6.44;100.00
48352;BME280;34163;49.314;6.752;2022-09-12T22:10:55;99216.44;;;6.43;100.00
48352;BME280;34163;49.314;6.752;2022-09-12T22:13:21;99212.16;;;6.40;100.00
48352;BME280;34163;49.314;6.752;2022-09-12T22:15:49;99207.84;;;6.38;100.00